sensor_id;sensor_type;location;lat;lon;timestamp;P1;durP1;ratioP1;P2;durP2;ratioP2
27893;SDS011;15240;50.812;4.792;2023-03-23T00:01:27;9.57;;;4.50;;
27893;SDS011;15240;50.812;4.792;2023-03-23T00:03:55;6.67;;;4.23;;
27893;SDS011;15240;50.812;4.792;2023-03-23T00:06:22;8.27;;;4.80;;
27893;SDS011;15240;50.812;4.792;2023-03-23T00:08:50;7.33;;;4.90;;
27893;SDS011;15240;50.812;4.792;2023-03-23T00:11:22;7.20;;;4.43;;
27893;SDS011;15240;50.812;4.792;2023-03-23T00:13:49;6.97;;;4.90;;
27893;SDS011;15240;50.812;4.792;2023-03-23T00:16:18;7.20;;;4.23;;
27893;SDS011;15240;50.812;4.792;2023-03-23T00:18:45;8.57;;;4.90;;
27893;SDS011;15240;50.812;4.792;2023-03-23T00:21:12;8.60;;;4.67;;
27893;SDS011;15240;50.812;4.792;2023-03-23T00:23:38;7.07;;;4.63;;
27893;SDS011;15240;50.812;4.792;2023-03-23T00:26:04;7.40;;;4.50;;
27893;SDS011;15240;50.812;4.792;2023-03-23T00:28:31;6.23;;;4.17;;
27893;SDS011;15240;50.812;4.792;2023-03-23T00:30:57;9.73;;;4.70;;
27893;SDS011;15240;50.812;4.792;2023-03-23T00:33:24;6.30;;;4.77;;
27893;SDS011;15240;50.812;4.792;2023-03-23T00:35:52;7.73;;;4.73;;
27893;SDS011;15240;50.812;4.792;2023-03-23T00:38:19;6.33;;;4.20;;
27893;SDS011;15240;50.812;4.792;2023-03-23T00:40:45;8.87;;;4.90;;
27893;SDS011;15240;50.812;4.792;2023-03-23T00:43:12;9.13;;;4.80;;
27893;SDS011;15240;50.812;4.792;2023-03-23T00:45:39;8.60;;;4.80;;
27893;SDS011;15240;50.812;4.792;2023-03-23T00:48:05;6.70;;;4.90;;
27893;SDS011;15240;50.812;4.792;2023-03-23T00:50:31;8.70;;;5.00;;
27893;SDS011;15240;50.812;4.792;2023-03-23T00:52:58;7.43;;;5.07;;
27893;SDS011;15240;50.812;4.792;2023-03-23T00:55:24;6.60;;;4.90;;
27893;SDS011;15240;50.812;4.792;2023-03-23T00:57:51;7.50;;;4.80;;
27893;SDS011;15240;50.812;4.792;2023-03-23T01:00:17;7.63;;;4.50;;
27893;SDS011;15240;50.812;4.792;2023-03-23T01:02:44;9.87;;;4.90;;
27893;SDS011;15240;50.812;4.792;2023-03-23T01:05:11;8.67;;;4.77;;
27893;SDS011;15240;50.812;4.792;2023-03-23T01:07:37;8.77;;;4.77;;
27893;SDS011;15240;50.812;4.792;2023-03-23T01:10:04;7.80;;;4.30;;
27893;SDS011;15240;50.812;4.792;2023-03-23T01:12:30;7.70;;;4.63;;
27893;SDS011;15240;50.812;4.792;2023-03-23T01:14:56;7.63;;;4.63;;
27893;SDS011;15240;50.812;4.792;2023-03-23T01:17:22;7.10;;;4.50;;
27893;SDS011;15240;50.812;4.792;2023-03-23T01:19:48;9.87;;;4.73;;
27893;SDS011;15240;50.812;4.792;2023-03-23T01:22:14;8.50;;;4.90;;
27893;SDS011;15240;50.812;4.792;2023-03-23T01:24:40;7.00;;;4.80;;
27893;SDS011;15240;50.812;4.792;2023-03-23T01:27:06;6.73;;;5.13;;
27893;SDS011;15240;50.812;4.792;2023-03-23T01:29:33;7.73;;;5.00;;
27893;SDS011;15240;50.812;4.792;2023-03-23T01:32:00;8.27;;;4.80;;
27893;SDS011;15240;50.812;4.792;2023-03-23T01:34:26;8.50;;;5.33;;
27893;SDS011;15240;50.812;4.792;2023-03-23T01:36:52;7.93;;;5.30;;
27893;SDS011;15240;50.812;4.792;2023-03-23T01:39:18;9.20;;;5.57;;
27893;SDS011;15240;50.812;4.792;2023-03-23T01:41:44;10.33;;;5.30;;
27893;SDS011;15240;50.812;4.792;2023-03-23T01:46:43;6.40;;;5.10;;
27893;SDS011;15240;50.812;4.792;2023-03-23T01:49:13;7.30;;;4.97;;
27893;SDS011;15240;50.812;4.792;2023-03-23T01:51:44;6.47;;;4.93;;
27893;SDS011;15240;50.812;4.792;2023-03-23T01:54:12;6.37;;;5.20;;
27893;SDS011;15240;50.812;4.792;2023-03-23T01:56:40;8.03;;;5.13;;
27893;SDS011;15240;50.812;4.792;2023-03-23T01:59:09;7.33;;;5.03;;
27893;SDS011;15240;50.812;4.792;2023-03-23T02:01:35;7.13;;;4.80;;
27893;SDS011;15240;50.812;4.792;2023-03-23T02:04:05;8.47;;;4.27;;
27893;SDS011;15240;50.812;4.792;2023-03-23T02:06:32;6.20;;;4.60;;
27893;SDS011;15240;50.812;4.792;2023-03-23T02:08:59;6.33;;;4.00;;
27893;SDS011;15240;50.812;4.792;2023-03-23T02:11:25;6.07;;;4.03;;
27893;SDS011;15240;50.812;4.792;2023-03-23T02:13:51;6.57;;;4.30;;
27893;SDS011;15240;50.812;4.792;2023-03-23T02:21:47;6.90;;;3.93;;
27893;SDS011;15240;50.812;4.792;2023-03-23T02:32:47;5.80;;;3.57;;
27893;SDS011;15240;50.812;4.792;2023-03-23T02:35:18;7.13;;;3.63;;
27893;SDS011;15240;50.812;4.792;2023-03-23T02:37:49;6.17;;;3.47;;
27893;SDS011;15240;50.812;4.792;2023-03-23T02:40:18;5.70;;;3.70;;
27893;SDS011;15240;50.812;4.792;2023-03-23T02:42:47;5.57;;;3.47;;
27893;SDS011;15240;50.812;4.792;2023-03-23T02:45:14;5.13;;;3.10;;
27893;SDS011;15240;50.812;4.792;2023-03-23T02:47:41;5.20;;;3.70;;
27893;SDS011;15240;50.812;4.792;2023-03-23T02:50:10;6.23;;;3.50;;
27893;SDS011;15240;50.812;4.792;2023-03-23T02:52:37;5.87;;;3.53;;
27893;SDS011;15240;50.812;4.792;2023-03-23T02:55:05;5.97;;;3.40;;
27893;SDS011;15240;50.812;4.792;2023-03-23T02:57:33;4.57;;;3.10;;
27893;SDS011;15240;50.812;4.792;2023-03-23T02:59:59;5.63;;;3.50;;
27893;SDS011;15240;50.812;4.792;2023-03-23T03:02:29;6.20;;;3.43;;
27893;SDS011;15240;50.812;4.792;2023-03-23T03:09:57;5.87;;;3.43;;
27893;SDS011;15240;50.812;4.792;2023-03-23T03:12:33;5.63;;;3.40;;
27893;SDS011;15240;50.812;4.792;2023-03-23T03:17:47;4.83;;;3.53;;
27893;SDS011;15240;50.812;4.792;2023-03-23T03:20:15;5.40;;;3.33;;
27893;SDS011;15240;50.812;4.792;2023-03-23T03:22:42;6.10;;;3.23;;
27893;SDS011;15240;50.812;4.792;2023-03-23T03:25:10;4.33;;;2.90;;
27893;SDS011;15240;50.812;4.792;2023-03-23T03:27:40;6.93;;;3.37;;
27893;SDS011;15240;50.812;4.792;2023-03-23T03:30:09;5.73;;;3.20;;
27893;SDS011;15240;50.812;4.792;2023-03-23T03:32:39;5.53;;;3.00;;
27893;SDS011;15240;50.812;4.792;2023-03-23T03:35:06;4.43;;;2.73;;
27893;SDS011;15240;50.812;4.792;2023-03-23T03:37:34;5.27;;;3.23;;
27893;SDS011;15240;50.812;4.792;2023-03-23T03:40:15;6.77;;;3.23;;
27893;SDS011;15240;50.812;4.792;2023-03-23T03:42:41;7.10;;;3.20;;
27893;SDS011;15240;50.812;4.792;2023-03-23T03:45:08;6.90;;;3.23;;
27893;SDS011;15240;50.812;4.792;2023-03-23T03:47:35;4.27;;;2.73;;
27893;SDS011;15240;50.812;4.792;2023-03-23T03:50:01;5.47;;;3.17;;
27893;SDS011;15240;50.812;4.792;2023-03-23T03:52:29;5.80;;;3.17;;
27893;SDS011;15240;50.812;4.792;2023-03-23T03:54:55;5.37;;;2.90;;
27893;SDS011;15240;50.812;4.792;2023-03-23T03:57:21;5.90;;;3.20;;
27893;SDS011;15240;50.812;4.792;2023-03-23T03:59:47;6.40;;;2.80;;
27893;SDS011;15240;50.812;4.792;2023-03-23T04:02:14;9.93;;;3.10;;
27893;SDS011;15240;50.812;4.792;2023-03-23T04:04:44;8.03;;;3.00;;
27893;SDS011;15240;50.812;4.792;2023-03-23T04:07:10;8.37;;;3.23;;
27893;SDS011;15240;50.812;4.792;2023-03-23T04:09:38;5.33;;;2.90;;
27893;SDS011;15240;50.812;4.792;2023-03-23T04:12:04;5.20;;;2.93;;
27893;SDS011;15240;50.812;4.792;2023-03-23T04:14:31;5.27;;;3.10;;
27893;SDS011;15240;50.812;4.792;2023-03-23T04:16:57;6.93;;;3.13;;
27893;SDS011;15240;50.812;4.792;2023-03-23T04:19:24;5.83;;;2.80;;
27893;SDS011;15240;50.812;4.792;2023-03-23T04:21:50;9.17;;;3.13;;
27893;SDS011;15240;50.812;4.792;2023-03-23T04:24:16;7.00;;;2.90;;
27893;SDS011;15240;50.812;4.792;2023-03-23T04:26:46;7.03;;;2.83;;
27893;SDS011;15240;50.812;4.792;2023-03-23T04:29:12;6.87;;;2.70;;
27893;SDS011;15240;50.812;4.792;2023-03-23T04:31:40;9.43;;;2.80;;
27893;SDS011;15240;50.812;4.792;2023-03-23T04:34:10;5.70;;;2.20;;
27893;SDS011;15240;50.812;4.792;2023-03-23T04:36:38;7.77;;;2.90;;
27893;SDS011;15240;50.812;4.792;2023-03-23T04:39:05;6.30;;;2.57;;
27893;SDS011;15240;50.812;4.792;2023-03-23T04:41:34;5.50;;;2.20;;
27893;SDS011;15240;50.812;4.792;2023-03-23T04:44:01;6.60;;;2.10;;
27893;SDS011;15240;50.812;4.792;2023-03-23T04:46:27;7.53;;;2.40;;
27893;SDS011;15240;50.812;4.792;2023-03-23T04:48:55;7.30;;;2.20;;
27893;SDS011;15240;50.812;4.792;2023-03-23T04:51:23;7.97;;;2.43;;
27893;SDS011;15240;50.812;4.792;2023-03-23T04:53:51;5.20;;;2.07;;
27893;SDS011;15240;50.812;4.792;2023-03-23T04:56:17;5.23;;;1.93;;
27893;SDS011;15240;50.812;4.792;2023-03-23T04:58:43;6.87;;;2.13;;
27893;SDS011;15240;50.812;4.792;2023-03-23T05:01:10;6.43;;;2.37;;
27893;SDS011;15240;50.812;4.792;2023-03-23T05:03:39;7.00;;;1.93;;
27893;SDS011;15240;50.812;4.792;2023-03-23T05:06:06;4.80;;;1.90;;
27893;SDS011;15240;50.812;4.792;2023-03-23T05:08:32;5.27;;;2.00;;
27893;SDS011;15240;50.812;4.792;2023-03-23T05:10:59;6.07;;;2.07;;
27893;SDS011;15240;50.812;4.792;2023-03-23T05:13:28;6.40;;;2.73;;
27893;SDS011;15240;50.812;4.792;2023-03-23T05:15:55;8.00;;;2.37;;
27893;SDS011;15240;50.812;4.792;2023-03-23T05:18:21;8.00;;;2.60;;
27893;SDS011;15240;50.812;4.792;2023-03-23T05:20:47;4.90;;;2.00;;
27893;SDS011;15240;50.812;4.792;2023-03-23T05:23:13;4.43;;;2.00;;
27893;SDS011;15240;50.812;4.792;2023-03-23T05:25:40;6.80;;;2.20;;
27893;SDS011;15240;50.812;4.792;2023-03-23T05:28:07;6.93;;;2.03;;
27893;SDS011;15240;50.812;4.792;2023-03-23T05:30:34;6.87;;;2.10;;
27893;SDS011;15240;50.812;4.792;2023-03-23T05:33:00;4.63;;;2.03;;
27893;SDS011;15240;50.812;4.792;2023-03-23T05:35:26;5.90;;;2.10;;
27893;SDS011;15240;50.812;4.792;2023-03-23T05:37:53;7.10;;;2.40;;
27893;SDS011;15240;50.812;4.792;2023-03-23T05:40:20;7.33;;;2.23;;
27893;SDS011;15240;50.812;4.792;2023-03-23T05:42:47;5.60;;;2.30;;
27893;SDS011;15240;50.812;4.792;2023-03-23T05:45:14;7.23;;;2.33;;
27893;SDS011;15240;50.812;4.792;2023-03-23T05:47:42;4.40;;;2.00;;
27893;SDS011;15240;50.812;4.792;2023-03-23T05:50:08;10.57;;;2.13;;
27893;SDS011;15240;50.812;4.792;2023-03-23T05:52:35;5.43;;;2.33;;
27893;SDS011;15240;50.812;4.792;2023-03-23T05:55:01;7.37;;;2.17;;
27893;SDS011;15240;50.812;4.792;2023-03-23T05:57:28;5.90;;;2.20;;
27893;SDS011;15240;50.812;4.792;2023-03-23T05:59:54;6.13;;;2.00;;
27893;SDS011;15240;50.812;4.792;2023-03-23T06:02:21;5.03;;;2.03;;
27893;SDS011;15240;50.812;4.792;2023-03-23T06:04:49;5.43;;;1.80;;
27893;SDS011;15240;50.812;4.792;2023-03-23T06:07:15;7.10;;;2.07;;
27893;SDS011;15240;50.812;4.792;2023-03-23T06:09:42;5.57;;;2.10;;
27893;SDS011;15240;50.812;4.792;2023-03-23T06:12:08;6.43;;;2.17;;
27893;SDS011;15240;50.812;4.792;2023-03-23T06:14:35;7.33;;;2.10;;
27893;SDS011;15240;50.812;4.792;2023-03-23T06:17:01;4.10;;;1.97;;
27893;SDS011;15240;50.812;4.792;2023-03-23T06:19:28;6.93;;;1.80;;
27893;SDS011;15240;50.812;4.792;2023-03-23T06:21:54;7.67;;;2.30;;
27893;SDS011;15240;50.812;4.792;2023-03-23T06:24:20;8.13;;;2.40;;
27893;SDS011;15240;50.812;4.792;2023-03-23T06:26:47;5.73;;;2.00;;
27893;SDS011;15240;50.812;4.792;2023-03-23T06:29:15;5.40;;;2.10;;
27893;SDS011;15240;50.812;4.792;2023-03-23T06:31:46;9.30;;;1.93;;
27893;SDS011;15240;50.812;4.792;2023-03-23T06:34:13;7.00;;;2.20;;
27893;SDS011;15240;50.812;4.792;2023-03-23T06:36:39;5.97;;;2.10;;
27893;SDS011;15240;50.812;4.792;2023-03-23T06:39:08;7.83;;;2.30;;
27893;SDS011;15240;50.812;4.792;2023-03-23T06:41:34;4.87;;;2.10;;
27893;SDS011;15240;50.812;4.792;2023-03-23T06:44:00;6.23;;;2.30;;
27893;SDS011;15240;50.812;4.792;2023-03-23T06:46:27;7.97;;;1.90;;
27893;SDS011;15240;50.812;4.792;2023-03-23T06:48:54;6.87;;;1.70;;
27893;SDS011;15240;50.812;4.792;2023-03-23T06:51:20;5.57;;;1.80;;
27893;SDS011;15240;50.812;4.792;2023-03-23T06:53:46;7.13;;;2.13;;
27893;SDS011;15240;50.812;4.792;2023-03-23T06:56:13;6.40;;;1.90;;
27893;SDS011;15240;50.812;4.792;2023-03-23T06:58:39;7.93;;;2.40;;
27893;SDS011;15240;50.812;4.792;2023-03-23T07:01:07;5.93;;;2.13;;
27893;SDS011;15240;50.812;4.792;2023-03-23T07:03:33;5.43;;;2.10;;
27893;SDS011;15240;50.812;4.792;2023-03-23T07:06:00;6.00;;;1.97;;
27893;SDS011;15240;50.812;4.792;2023-03-23T07:08:26;7.27;;;2.20;;
27893;SDS011;15240;50.812;4.792;2023-03-23T07:10:53;8.47;;;2.30;;
27893;SDS011;15240;50.812;4.792;2023-03-23T07:13:20;5.90;;;2.00;;
27893;SDS011;15240;50.812;4.792;2023-03-23T07:15:46;5.77;;;2.10;;
27893;SDS011;15240;50.812;4.792;2023-03-23T07:18:13;7.13;;;1.93;;
27893;SDS011;15240;50.812;4.792;2023-03-23T07:20:39;4.83;;;1.90;;
27893;SDS011;15240;50.812;4.792;2023-03-23T07:23:05;8.07;;;2.00;;
27893;SDS011;15240;50.812;4.792;2023-03-23T07:25:32;7.30;;;2.30;;
27893;SDS011;15240;50.812;4.792;2023-03-23T07:27:59;9.13;;;2.00;;
27893;SDS011;15240;50.812;4.792;2023-03-23T07:30:26;6.90;;;2.00;;
27893;SDS011;15240;50.812;4.792;2023-03-23T07:32:52;8.97;;;2.20;;
27893;SDS011;15240;50.812;4.792;2023-03-23T07:35:18;5.23;;;2.63;;
27893;SDS011;15240;50.812;4.792;2023-03-23T07:37:44;5.60;;;1.80;;
27893;SDS011;15240;50.812;4.792;2023-03-23T07:40:13;5.03;;;1.57;;
27893;SDS011;15240;50.812;4.792;2023-03-23T07:42:40;4.43;;;1.80;;
27893;SDS011;15240;50.812;4.792;2023-03-23T07:45:07;7.47;;;1.70;;
27893;SDS011;15240;50.812;4.792;2023-03-23T07:47:34;7.30;;;2.27;;
27893;SDS011;15240;50.812;4.792;2023-03-23T07:50:00;5.63;;;1.97;;
27893;SDS011;15240;50.812;4.792;2023-03-23T07:52:26;8.57;;;2.13;;
27893;SDS011;15240;50.812;4.792;2023-03-23T07:54:52;7.20;;;2.10;;
27893;SDS011;15240;50.812;4.792;2023-03-23T07:57:18;5.93;;;2.00;;
27893;SDS011;15240;50.812;4.792;2023-03-23T07:59:44;5.60;;;1.80;;
27893;SDS011;15240;50.812;4.792;2023-03-23T08:02:11;7.33;;;2.33;;
27893;SDS011;15240;50.812;4.792;2023-03-23T08:04:37;7.30;;;2.17;;
27893;SDS011;15240;50.812;4.792;2023-03-23T08:07:03;5.70;;;1.93;;
27893;SDS011;15240;50.812;4.792;2023-03-23T08:09:30;5.87;;;2.37;;
27893;SDS011;15240;50.812;4.792;2023-03-23T08:11:56;8.67;;;2.60;;
27893;SDS011;15240;50.812;4.792;2023-03-23T08:14:23;6.80;;;2.10;;
27893;SDS011;15240;50.812;4.792;2023-03-23T08:16:52;10.10;;;2.90;;
27893;SDS011;15240;50.812;4.792;2023-03-23T08:19:20;10.87;;;3.23;;
27893;SDS011;15240;50.812;4.792;2023-03-23T08:21:46;9.87;;;3.10;;
27893;SDS011;15240;50.812;4.792;2023-03-23T08:24:13;8.77;;;2.90;;
27893;SDS011;15240;50.812;4.792;2023-03-23T08:26:40;8.37;;;3.30;;
27893;SDS011;15240;50.812;4.792;2023-03-23T08:29:06;9.17;;;2.93;;
27893;SDS011;15240;50.812;4.792;2023-03-23T08:31:33;8.30;;;2.83;;
27893;SDS011;15240;50.812;4.792;2023-03-23T08:34:00;6.23;;;2.70;;
27893;SDS011;15240;50.812;4.792;2023-03-23T08:36:26;6.13;;;2.50;;
27893;SDS011;15240;50.812;4.792;2023-03-23T08:38:53;5.27;;;1.70;;
27893;SDS011;15240;50.812;4.792;2023-03-23T08:41:19;3.33;;;1.43;;
27893;SDS011;15240;50.812;4.792;2023-03-23T08:43:45;4.80;;;1.80;;
27893;SDS011;15240;50.812;4.792;2023-03-23T08:46:12;4.50;;;2.00;;
27893;SDS011;15240;50.812;4.792;2023-03-23T08:48:39;7.00;;;1.80;;
27893;SDS011;15240;50.812;4.792;2023-03-23T08:51:05;6.20;;;1.63;;
27893;SDS011;15240;50.812;4.792;2023-03-23T08:53:32;4.70;;;1.57;;
27893;SDS011;15240;50.812;4.792;2023-03-23T08:56:05;3.40;;;1.20;;
27893;SDS011;15240;50.812;4.792;2023-03-23T08:58:31;4.63;;;1.43;;
27893;SDS011;15240;50.812;4.792;2023-03-23T09:00:58;2.20;;;0.80;;
27893;SDS011;15240;50.812;4.792;2023-03-23T09:03:25;4.90;;;1.00;;
27893;SDS011;15240;50.812;4.792;2023-03-23T09:05:51;3.57;;;1.00;;
27893;SDS011;15240;50.812;4.792;2023-03-23T09:08:19;4.57;;;1.00;;
27893;SDS011;15240;50.812;4.792;2023-03-23T09:10:45;3.80;;;0.80;;
27893;SDS011;15240;50.812;4.792;2023-03-23T09:13:11;6.50;;;0.87;;
27893;SDS011;15240;50.812;4.792;2023-03-23T09:15:37;5.53;;;0.93;;
27893;SDS011;15240;50.812;4.792;2023-03-23T09:18:03;3.70;;;0.80;;
27893;SDS011;15240;50.812;4.792;2023-03-23T09:20:29;2.77;;;1.27;;
27893;SDS011;15240;50.812;4.792;2023-03-23T09:22:56;4.77;;;1.00;;
27893;SDS011;15240;50.812;4.792;2023-03-23T09:25:23;5.03;;;1.10;;
27893;SDS011;15240;50.812;4.792;2023-03-23T09:27:51;3.27;;;0.93;;
27893;SDS011;15240;50.812;4.792;2023-03-23T09:30:21;3.97;;;0.90;;
27893;SDS011;15240;50.812;4.792;2023-03-23T09:32:47;3.80;;;1.00;;
27893;SDS011;15240;50.812;4.792;2023-03-23T09:35:13;4.07;;;1.00;;
27893;SDS011;15240;50.812;4.792;2023-03-23T09:37:41;2.40;;;1.20;;
27893;SDS011;15240;50.812;4.792;2023-03-23T09:40:43;4.63;;;1.47;;
27893;SDS011;15240;50.812;4.792;2023-03-23T09:45:37;4.90;;;1.40;;
27893;SDS011;15240;50.812;4.792;2023-03-23T09:50:41;3.00;;;1.30;;
27893;SDS011;15240;50.812;4.792;2023-03-23T09:53:19;4.40;;;1.47;;
27893;SDS011;15240;50.812;4.792;2023-03-23T09:55:46;3.50;;;0.90;;
27893;SDS011;15240;50.812;4.792;2023-03-23T10:00:59;5.20;;;1.40;;
27893;SDS011;15240;50.812;4.792;2023-03-23T10:03:29;3.77;;;1.70;;
27893;SDS011;15240;50.812;4.792;2023-03-23T10:05:57;6.67;;;3.40;;
27893;SDS011;15240;50.812;4.792;2023-03-23T10:08:24;7.03;;;3.40;;
27893;SDS011;15240;50.812;4.792;2023-03-23T10:10:59;5.60;;;2.50;;
27893;SDS011;15240;50.812;4.792;2023-03-23T10:15:58;5.97;;;2.60;;
27893;SDS011;15240;50.812;4.792;2023-03-23T10:18:29;6.30;;;2.37;;
27893;SDS011;15240;50.812;4.792;2023-03-23T10:20:59;7.13;;;2.80;;
27893;SDS011;15240;50.812;4.792;2023-03-23T10:23:41;7.67;;;3.50;;
27893;SDS011;15240;50.812;4.792;2023-03-23T10:28:48;6.60;;;3.57;;
27893;SDS011;15240;50.812;4.792;2023-03-23T10:31:40;7.33;;;3.93;;
27893;SDS011;15240;50.812;4.792;2023-03-23T10:34:15;7.00;;;4.00;;
27893;SDS011;15240;50.812;4.792;2023-03-23T10:39:26;5.83;;;3.00;;
27893;SDS011;15240;50.812;4.792;2023-03-23T10:41:53;7.37;;;3.03;;
27893;SDS011;15240;50.812;4.792;2023-03-23T10:44:21;5.47;;;2.77;;
27893;SDS011;15240;50.812;4.792;2023-03-23T10:49:23;6.43;;;2.80;;
27893;SDS011;15240;50.812;4.792;2023-03-23T10:51:56;5.80;;;2.53;;
27893;SDS011;15240;50.812;4.792;2023-03-23T10:54:31;6.13;;;2.57;;
27893;SDS011;15240;50.812;4.792;2023-03-23T10:56:58;5.13;;;2.13;;
27893;SDS011;15240;50.812;4.792;2023-03-23T10:59:28;6.00;;;2.60;;
27893;SDS011;15240;50.812;4.792;2023-03-23T11:01:55;7.23;;;2.60;;
27893;SDS011;15240;50.812;4.792;2023-03-23T11:04:22;7.90;;;2.53;;
27893;SDS011;15240;50.812;4.792;2023-03-23T11:06:50;5.40;;;2.40;;
27893;SDS011;15240;50.812;4.792;2023-03-23T11:09:18;4.33;;;2.00;;
27893;SDS011;15240;50.812;4.792;2023-03-23T11:11:49;5.07;;;2.60;;
27893;SDS011;15240;50.812;4.792;2023-03-23T11:14:24;7.07;;;2.37;;
27893;SDS011;15240;50.812;4.792;2023-03-23T11:16:54;6.63;;;2.67;;
27893;SDS011;15240;50.812;4.792;2023-03-23T11:19:22;7.87;;;2.50;;
27893;SDS011;15240;50.812;4.792;2023-03-23T11:21:50;8.63;;;2.83;;
27893;SDS011;15240;50.812;4.792;2023-03-23T11:24:17;5.00;;;2.70;;
27893;SDS011;15240;50.812;4.792;2023-03-23T11:26:44;6.07;;;2.43;;
27893;SDS011;15240;50.812;4.792;2023-03-23T11:29:13;4.73;;;2.50;;
27893;SDS011;15240;50.812;4.792;2023-03-23T11:31:42;6.47;;;2.37;;
27893;SDS011;15240;50.812;4.792;2023-03-23T11:36:42;6.43;;;2.30;;
27893;SDS011;15240;50.812;4.792;2023-03-23T11:42:18;8.30;;;2.77;;
27893;SDS011;15240;50.812;4.792;2023-03-23T11:44:45;7.20;;;3.10;;
27893;SDS011;15240;50.812;4.792;2023-03-23T11:52:26;7.50;;;2.73;;
27893;SDS011;15240;50.812;4.792;2023-03-23T11:55:07;7.67;;;3.53;;
27893;SDS011;15240;50.812;4.792;2023-03-23T11:57:34;8.60;;;2.47;;
27893;SDS011;15240;50.812;4.792;2023-03-23T12:00:01;5.30;;;2.33;;
27893;SDS011;15240;50.812;4.792;2023-03-23T12:02:46;6.03;;;2.50;;
27893;SDS011;15240;50.812;4.792;2023-03-23T12:17:59;4.63;;;2.17;;
27893;SDS011;15240;50.812;4.792;2023-03-23T12:23:00;4.63;;;1.60;;
27893;SDS011;15240;50.812;4.792;2023-03-23T12:27:58;5.13;;;1.50;;
27893;SDS011;15240;50.812;4.792;2023-03-23T12:35:47;8.07;;;2.40;;
27893;SDS011;15240;50.812;4.792;2023-03-23T12:40:42;7.00;;;2.30;;
27893;SDS011;15240;50.812;4.792;2023-03-23T12:48:29;9.43;;;2.77;;
27893;SDS011;15240;50.812;4.792;2023-03-23T12:56:26;6.03;;;2.37;;
27893;SDS011;15240;50.812;4.792;2023-03-23T12:59:01;9.07;;;2.60;;
27893;SDS011;15240;50.812;4.792;2023-03-23T13:01:33;8.50;;;2.90;;
27893;SDS011;15240;50.812;4.792;2023-03-23T13:06:46;10.77;;;3.70;;
27893;SDS011;15240;50.812;4.792;2023-03-23T13:11:45;8.23;;;2.97;;
27893;SDS011;15240;50.812;4.792;2023-03-23T13:16:49;8.33;;;3.47;;
27893;SDS011;15240;50.812;4.792;2023-03-23T13:24:15;12.47;;;3.50;;
27893;SDS011;15240;50.812;4.792;2023-03-23T13:26:41;7.80;;;2.67;;
27893;SDS011;15240;50.812;4.792;2023-03-23T13:31:37;9.47;;;3.43;;
27893;SDS011;15240;50.812;4.792;2023-03-23T13:36:37;7.63;;;3.33;;
27893;SDS011;15240;50.812;4.792;2023-03-23T13:39:17;8.07;;;2.93;;
27893;SDS011;15240;50.812;4.792;2023-03-23T13:41:59;7.33;;;3.50;;
27893;SDS011;15240;50.812;4.792;2023-03-23T13:44:26;8.73;;;3.53;;
27893;SDS011;15240;50.812;4.792;2023-03-23T13:47:03;8.33;;;3.10;;
27893;SDS011;15240;50.812;4.792;2023-03-23T13:49:31;6.90;;;3.40;;
27893;SDS011;15240;50.812;4.792;2023-03-23T13:56:57;8.57;;;3.47;;
27893;SDS011;15240;50.812;4.792;2023-03-23T14:04:39;7.40;;;2.70;;
27893;SDS011;15240;50.812;4.792;2023-03-23T14:07:09;7.80;;;3.43;;
27893;SDS011;15240;50.812;4.792;2023-03-23T14:09:39;10.13;;;2.80;;
27893;SDS011;15240;50.812;4.792;2023-03-23T14:12:13;7.47;;;2.93;;
27893;SDS011;15240;50.812;4.792;2023-03-23T14:14:41;6.63;;;2.50;;
27893;SDS011;15240;50.812;4.792;2023-03-23T14:17:15;10.70;;;3.23;;
27893;SDS011;15240;50.812;4.792;2023-03-23T14:19:42;8.30;;;2.73;;
27893;SDS011;15240;50.812;4.792;2023-03-23T14:22:25;9.23;;;2.60;;
27893;SDS011;15240;50.812;4.792;2023-03-23T14:24:51;7.77;;;3.07;;
27893;SDS011;15240;50.812;4.792;2023-03-23T14:27:22;9.27;;;2.90;;
27893;SDS011;15240;50.812;4.792;2023-03-23T14:30:02;10.03;;;3.87;;
27893;SDS011;15240;50.812;4.792;2023-03-23T14:32:30;8.50;;;3.40;;
27893;SDS011;15240;50.812;4.792;2023-03-23T14:34:57;10.53;;;3.67;;
27893;SDS011;15240;50.812;4.792;2023-03-23T14:37:23;9.17;;;3.40;;
27893;SDS011;15240;50.812;4.792;2023-03-23T14:39:52;8.73;;;3.60;;
27893;SDS011;15240;50.812;4.792;2023-03-23T14:42:19;10.60;;;3.73;;
27893;SDS011;15240;50.812;4.792;2023-03-23T14:44:47;9.53;;;3.93;;
27893;SDS011;15240;50.812;4.792;2023-03-23T14:49:44;10.30;;;4.10;;
27893;SDS011;15240;50.812;4.792;2023-03-23T14:52:12;10.07;;;4.13;;
27893;SDS011;15240;50.812;4.792;2023-03-23T14:54:38;10.50;;;3.97;;
27893;SDS011;15240;50.812;4.792;2023-03-23T14:57:15;11.20;;;4.10;;
27893;SDS011;15240;50.812;4.792;2023-03-23T14:59:45;12.43;;;4.23;;
27893;SDS011;15240;50.812;4.792;2023-03-23T15:02:34;13.20;;;3.43;;
27893;SDS011;15240;50.812;4.792;2023-03-23T15:04:59;6.63;;;2.33;;
27893;SDS011;15240;50.812;4.792;2023-03-23T15:07:29;10.13;;;3.10;;
27893;SDS011;15240;50.812;4.792;2023-03-23T15:09:56;7.03;;;2.23;;
27893;SDS011;15240;50.812;4.792;2023-03-23T15:12:24;7.20;;;2.20;;
27893;SDS011;15240;50.812;4.792;2023-03-23T15:14:53;7.47;;;2.40;;
27893;SDS011;15240;50.812;4.792;2023-03-23T15:17:21;8.30;;;2.10;;
27893;SDS011;15240;50.812;4.792;2023-03-23T15:19:48;9.30;;;2.53;;
27893;SDS011;15240;50.812;4.792;2023-03-23T15:24:44;7.20;;;2.70;;
27893;SDS011;15240;50.812;4.792;2023-03-23T15:27:29;8.80;;;2.13;;
27893;SDS011;15240;50.812;4.792;2023-03-23T15:29:57;6.43;;;2.57;;
27893;SDS011;15240;50.812;4.792;2023-03-23T15:34:51;7.90;;;2.80;;
27893;SDS011;15240;50.812;4.792;2023-03-23T15:37:19;8.73;;;2.60;;
27893;SDS011;15240;50.812;4.792;2023-03-23T15:39:45;7.43;;;2.40;;
27893;SDS011;15240;50.812;4.792;2023-03-23T15:47:35;8.97;;;3.40;;
27893;SDS011;15240;50.812;4.792;2023-03-23T15:50:07;11.87;;;3.30;;
27893;SDS011;15240;50.812;4.792;2023-03-23T15:52:34;8.33;;;3.07;;
27893;SDS011;15240;50.812;4.792;2023-03-23T15:55:00;9.97;;;3.30;;
27893;SDS011;15240;50.812;4.792;2023-03-23T15:57:26;8.90;;;3.13;;
27893;SDS011;15240;50.812;4.792;2023-03-23T15:59:52;8.97;;;3.00;;
27893;SDS011;15240;50.812;4.792;2023-03-23T16:02:20;9.90;;;3.80;;
27893;SDS011;15240;50.812;4.792;2023-03-23T16:04:47;10.90;;;3.43;;
27893;SDS011;15240;50.812;4.792;2023-03-23T16:07:13;10.70;;;3.70;;
27893;SDS011;15240;50.812;4.792;2023-03-23T16:09:39;9.33;;;3.67;;
27893;SDS011;15240;50.812;4.792;2023-03-23T16:12:15;11.67;;;3.43;;
27893;SDS011;15240;50.812;4.792;2023-03-23T16:14:41;8.63;;;2.93;;
27893;SDS011;15240;50.812;4.792;2023-03-23T16:17:18;9.10;;;3.10;;
27893;SDS011;15240;50.812;4.792;2023-03-23T16:19:45;10.53;;;3.20;;
27893;SDS011;15240;50.812;4.792;2023-03-23T16:22:11;7.37;;;2.90;;
27893;SDS011;15240;50.812;4.792;2023-03-23T16:24:37;12.03;;;2.80;;
27893;SDS011;15240;50.812;4.792;2023-03-23T16:27:05;7.87;;;3.10;;
27893;SDS011;15240;50.812;4.792;2023-03-23T16:29:31;10.37;;;3.13;;
27893;SDS011;15240;50.812;4.792;2023-03-23T16:31:57;10.23;;;3.30;;
27893;SDS011;15240;50.812;4.792;2023-03-23T16:34:23;9.10;;;2.93;;
27893;SDS011;15240;50.812;4.792;2023-03-23T16:36:49;10.50;;;2.90;;
27893;SDS011;15240;50.812;4.792;2023-03-23T16:39:15;10.50;;;2.93;;
27893;SDS011;15240;50.812;4.792;2023-03-23T16:41:43;5.93;;;2.53;;
27893;SDS011;15240;50.812;4.792;2023-03-23T16:44:09;10.23;;;2.30;;
27893;SDS011;15240;50.812;4.792;2023-03-23T16:46:36;8.17;;;2.67;;
27893;SDS011;15240;50.812;4.792;2023-03-23T16:49:02;10.63;;;2.47;;
27893;SDS011;15240;50.812;4.792;2023-03-23T16:51:28;7.47;;;2.60;;
27893;SDS011;15240;50.812;4.792;2023-03-23T16:53:54;12.90;;;2.20;;
27893;SDS011;15240;50.812;4.792;2023-03-23T16:56:20;8.73;;;2.63;;
27893;SDS011;15240;50.812;4.792;2023-03-23T16:58:46;7.60;;;2.67;;
27893;SDS011;15240;50.812;4.792;2023-03-23T17:01:12;12.80;;;2.77;;